sensor_id;sensor_type;location;lat;lon;timestamp;P1;durP1;ratioP1;P2;durP2;ratioP2
55372;SDS011;41249;47.838;16.490;2023-02-15T00:01:59;20.20;;;9.73;;
55372;SDS011;41249;47.838;16.490;2023-02-15T00:04:27;17.92;;;9.68;;
55372;SDS011;41249;47.838;16.490;2023-02-15T00:07:15;16.35;;;9.13;;
55372;SDS011;41249;47.838;16.490;2023-02-15T00:09:46;17.58;;;9.55;;
55372;SDS011;41249;47.838;16.490;2023-02-15T00:12:13;20.10;;;11.23;;
55372;SDS011;41249;47.838;16.490;2023-02-15T00:14:40;18.60;;;9.88;;
55372;SDS011;41249;47.838;16.490;2023-02-15T00:17:08;15.48;;;9.68;;
55372;SDS011;41249;47.838;16.490;2023-02-15T00:19:35;15.43;;;9.05;;
55372;SDS011;41249;47.838;16.490;2023-02-15T00:22:01;20.88;;;11.35;;
55372;SDS011;41249;47.838;16.490;2023-02-15T00:24:28;17.27;;;9.95;;
55372;SDS011;41249;47.838;16.490;2023-02-15T00:26:55;18.52;;;8.77;;
55372;SDS011;41249;47.838;16.490;2023-02-15T00:29:21;23.08;;;10.43;;
55372;SDS011;41249;47.838;16.490;2023-02-15T00:31:48;19.55;;;10.00;;
55372;SDS011;41249;47.838;16.490;2023-02-15T00:34:16;21.02;;;11.35;;
55372;SDS011;41249;47.838;16.490;2023-02-15T00:36:45;17.67;;;9.90;;
55372;SDS011;41249;47.838;16.490;2023-02-15T00:39:12;18.85;;;9.32;;
55372;SDS011;41249;47.838;16.490;2023-02-15T00:41:39;16.15;;;8.57;;
55372;SDS011;41249;47.838;16.490;2023-02-15T00:44:06;14.90;;;8.63;;
55372;SDS011;41249;47.838;16.490;2023-02-15T00:46:33;20.75;;;10.20;;
55372;SDS011;41249;47.838;16.490;2023-02-15T00:49:00;18.30;;;10.55;;
55372;SDS011;41249;47.838;16.490;2023-02-15T00:51:27;21.05;;;10.00;;
55372;SDS011;41249;47.838;16.490;2023-02-15T00:53:54;15.15;;;8.95;;
55372;SDS011;41249;47.838;16.490;2023-02-15T00:56:21;16.08;;;9.40;;
55372;SDS011;41249;47.838;16.490;2023-02-15T00:58:47;17.75;;;10.05;;
55372;SDS011;41249;47.838;16.490;2023-02-15T01:01:15;18.15;;;9.02;;
55372;SDS011;41249;47.838;16.490;2023-02-15T01:03:43;20.63;;;8.77;;
55372;SDS011;41249;47.838;16.490;2023-02-15T01:06:12;18.48;;;9.48;;
55372;SDS011;41249;47.838;16.490;2023-02-15T01:08:40;18.70;;;9.38;;
55372;SDS011;41249;47.838;16.490;2023-02-15T01:11:08;18.05;;;9.68;;
55372;SDS011;41249;47.838;16.490;2023-02-15T01:13:38;18.98;;;10.23;;
55372;SDS011;41249;47.838;16.490;2023-02-15T01:16:04;17.98;;;7.95;;
55372;SDS011;41249;47.838;16.490;2023-02-15T01:18:32;21.83;;;11.20;;
55372;SDS011;41249;47.838;16.490;2023-02-15T01:20:59;22.88;;;11.57;;
55372;SDS011;41249;47.838;16.490;2023-02-15T01:23:26;18.75;;;9.32;;
55372;SDS011;41249;47.838;16.490;2023-02-15T01:25:52;15.88;;;8.02;;
55372;SDS011;41249;47.838;16.490;2023-02-15T01:28:19;18.20;;;9.75;;
55372;SDS011;41249;47.838;16.490;2023-02-15T01:30:45;14.73;;;8.48;;
55372;SDS011;41249;47.838;16.490;2023-02-15T01:33:12;16.20;;;6.82;;
55372;SDS011;41249;47.838;16.490;2023-02-15T01:35:44;17.02;;;8.70;;
55372;SDS011;41249;47.838;16.490;2023-02-15T01:38:13;15.80;;;9.02;;
55372;SDS011;41249;47.838;16.490;2023-02-15T01:40:40;15.80;;;8.77;;
55372;SDS011;41249;47.838;16.490;2023-02-15T01:43:10;16.20;;;8.45;;
55372;SDS011;41249;47.838;16.490;2023-02-15T01:45:38;21.17;;;11.48;;
55372;SDS011;41249;47.838;16.490;2023-02-15T01:48:21;19.05;;;8.50;;
55372;SDS011;41249;47.838;16.490;2023-02-15T01:50:56;19.50;;;9.43;;
55372;SDS011;41249;47.838;16.490;2023-02-15T01:53:29;18.77;;;9.02;;
55372;SDS011;41249;47.838;16.490;2023-02-15T01:56:01;20.70;;;9.88;;
55372;SDS011;41249;47.838;16.490;2023-02-15T01:58:35;20.38;;;10.30;;
55372;SDS011;41249;47.838;16.490;2023-02-15T02:01:03;15.20;;;7.68;;
55372;SDS011;41249;47.838;16.490;2023-02-15T02:06:18;16.77;;;8.75;;
55372;SDS011;41249;47.838;16.490;2023-02-15T02:08:46;17.52;;;9.18;;
55372;SDS011;41249;47.838;16.490;2023-02-15T02:11:13;20.02;;;10.30;;
55372;SDS011;41249;47.838;16.490;2023-02-15T02:13:42;16.95;;;8.90;;
55372;SDS011;41249;47.838;16.490;2023-02-15T02:16:12;17.35;;;8.82;;
55372;SDS011;41249;47.838;16.490;2023-02-15T02:27:26;12.48;;;7.40;;
55372;SDS011;41249;47.838;16.490;2023-02-15T02:36:20;18.98;;;9.82;;
55372;SDS011;41249;47.838;16.490;2023-02-15T02:41:49;18.33;;;8.63;;
55372;SDS011;41249;47.838;16.490;2023-02-15T02:44:49;15.13;;;8.25;;
55372;SDS011;41249;47.838;16.490;2023-02-15T02:50:03;21.08;;;10.68;;
55372;SDS011;41249;47.838;16.490;2023-02-15T02:53:06;16.13;;;8.02;;
55372;SDS011;41249;47.838;16.490;2023-02-15T02:55:36;18.80;;;10.07;;
55372;SDS011;41249;47.838;16.490;2023-02-15T03:00:48;19.80;;;9.35;;
55372;SDS011;41249;47.838;16.490;2023-02-15T03:03:26;20.80;;;11.95;;
55372;SDS011;41249;47.838;16.490;2023-02-15T03:06:00;24.15;;;11.18;;
55372;SDS011;41249;47.838;16.490;2023-02-15T03:08:36;22.02;;;10.52;;
55372;SDS011;41249;47.838;16.490;2023-02-15T03:11:07;18.70;;;10.32;;
55372;SDS011;41249;47.838;16.490;2023-02-15T03:13:35;21.80;;;10.93;;
55372;SDS011;41249;47.838;16.490;2023-02-15T03:16:02;19.10;;;10.07;;
55372;SDS011;41249;47.838;16.490;2023-02-15T03:18:51;20.63;;;10.45;;
55372;SDS011;41249;47.838;16.490;2023-02-15T03:21:34;20.05;;;8.65;;
55372;SDS011;41249;47.838;16.490;2023-02-15T03:24:17;17.95;;;9.40;;
55372;SDS011;41249;47.838;16.490;2023-02-15T03:26:50;18.05;;;9.63;;
55372;SDS011;41249;47.838;16.490;2023-02-15T03:29:20;18.00;;;9.75;;
55372;SDS011;41249;47.838;16.490;2023-02-15T03:31:51;17.63;;;9.90;;
55372;SDS011;41249;47.838;16.490;2023-02-15T03:34:23;22.02;;;10.52;;
55372;SDS011;41249;47.838;16.490;2023-02-15T03:36:57;15.50;;;8.90;;
55372;SDS011;41249;47.838;16.490;2023-02-15T03:43:09;13.60;;;7.63;;
55372;SDS011;41249;47.838;16.490;2023-02-15T03:45:42;16.08;;;7.43;;
55372;SDS011;41249;47.838;16.490;2023-02-15T03:48:32;17.15;;;7.88;;
55372;SDS011;41249;47.838;16.490;2023-02-15T03:51:07;18.98;;;8.95;;
55372;SDS011;41249;47.838;16.490;2023-02-15T03:53:56;16.42;;;8.85;;
55372;SDS011;41249;47.838;16.490;2023-02-15T03:56:24;15.13;;;7.53;;
55372;SDS011;41249;47.838;16.490;2023-02-15T03:58:51;14.18;;;7.97;;
55372;SDS011;41249;47.838;16.490;2023-02-15T04:01:47;17.20;;;7.97;;
55372;SDS011;41249;47.838;16.490;2023-02-15T04:04:33;11.20;;;5.95;;
55372;SDS011;41249;47.838;16.490;2023-02-15T04:07:02;12.43;;;7.22;;
55372;SDS011;41249;47.838;16.490;2023-02-15T04:09:30;16.40;;;8.60;;
55372;SDS011;41249;47.838;16.490;2023-02-15T04:12:16;18.08;;;8.85;;
55372;SDS011;41249;47.838;16.490;2023-02-15T04:14:43;13.65;;;7.75;;
55372;SDS011;41249;47.838;16.490;2023-02-15T04:17:28;13.93;;;8.20;;
55372;SDS011;41249;47.838;16.490;2023-02-15T04:19:55;21.20;;;9.68;;
55372;SDS011;41249;47.838;16.490;2023-02-15T04:22:40;13.75;;;7.53;;
55372;SDS011;41249;47.838;16.490;2023-02-15T04:25:25;14.55;;;7.13;;
55372;SDS011;41249;47.838;16.490;2023-02-15T04:27:52;15.35;;;6.90;;
55372;SDS011;41249;47.838;16.490;2023-02-15T04:30:21;16.67;;;8.32;;
55372;SDS011;41249;47.838;16.490;2023-02-15T04:32:49;16.63;;;9.48;;
55372;SDS011;41249;47.838;16.490;2023-02-15T04:35:17;15.05;;;8.00;;
55372;SDS011;41249;47.838;16.490;2023-02-15T04:37:44;16.20;;;9.50;;
55372;SDS011;41249;47.838;16.490;2023-02-15T04:40:11;21.38;;;10.15;;
55372;SDS011;41249;47.838;16.490;2023-02-15T04:42:40;14.02;;;7.40;;
55372;SDS011;41249;47.838;16.490;2023-02-15T04:45:06;12.57;;;7.03;;
55372;SDS011;41249;47.838;16.490;2023-02-15T04:47:33;17.73;;;9.77;;
55372;SDS011;41249;47.838;16.490;2023-02-15T04:50:00;16.35;;;7.70;;
55372;SDS011;41249;47.838;16.490;2023-02-15T04:52:27;22.30;;;9.35;;
55372;SDS011;41249;47.838;16.490;2023-02-15T04:54:53;15.60;;;7.72;;
55372;SDS011;41249;47.838;16.490;2023-02-15T04:57:20;17.02;;;9.57;;
55372;SDS011;41249;47.838;16.490;2023-02-15T04:59:46;17.25;;;8.45;;
55372;SDS011;41249;47.838;16.490;2023-02-15T05:02:13;20.85;;;10.50;;
55372;SDS011;41249;47.838;16.490;2023-02-15T05:04:40;15.05;;;8.43;;
55372;SDS011;41249;47.838;16.490;2023-02-15T05:07:06;17.55;;;9.27;;
55372;SDS011;41249;47.838;16.490;2023-02-15T05:09:33;16.30;;;8.23;;
55372;SDS011;41249;47.838;16.490;2023-02-15T05:11:59;20.50;;;10.50;;
55372;SDS011;41249;47.838;16.490;2023-02-15T05:14:26;19.65;;;11.65;;
55372;SDS011;41249;47.838;16.490;2023-02-15T05:16:52;19.00;;;10.00;;
55372;SDS011;41249;47.838;16.490;2023-02-15T05:19:20;23.17;;;11.02;;
55372;SDS011;41249;47.838;16.490;2023-02-15T05:21:46;17.23;;;8.70;;
55372;SDS011;41249;47.838;16.490;2023-02-15T05:24:13;18.67;;;8.45;;
55372;SDS011;41249;47.838;16.490;2023-02-15T05:26:58;17.23;;;8.57;;
55372;SDS011;41249;47.838;16.490;2023-02-15T05:29:43;16.35;;;8.82;;
55372;SDS011;41249;47.838;16.490;2023-02-15T05:32:12;14.73;;;7.40;;
55372;SDS011;41249;47.838;16.490;2023-02-15T05:34:40;18.85;;;8.57;;
55372;SDS011;41249;47.838;16.490;2023-02-15T05:37:07;16.65;;;8.90;;
55372;SDS011;41249;47.838;16.490;2023-02-15T05:39:34;17.00;;;9.52;;
55372;SDS011;41249;47.838;16.490;2023-02-15T05:42:01;15.15;;;7.80;;
55372;SDS011;41249;47.838;16.490;2023-02-15T05:44:28;16.08;;;7.45;;
55372;SDS011;41249;47.838;16.490;2023-02-15T05:46:55;16.83;;;8.15;;
55372;SDS011;41249;47.838;16.490;2023-02-15T05:49:21;16.08;;;7.35;;
55372;SDS011;41249;47.838;16.490;2023-02-15T05:51:48;16.90;;;9.48;;
55372;SDS011;41249;47.838;16.490;2023-02-15T05:54:15;20.23;;;8.40;;
55372;SDS011;41249;47.838;16.490;2023-02-15T05:56:41;14.80;;;7.72;;
55372;SDS011;41249;47.838;16.490;2023-02-15T05:59:08;15.95;;;8.95;;
55372;SDS011;41249;47.838;16.490;2023-02-15T06:01:35;17.20;;;8.18;;
55372;SDS011;41249;47.838;16.490;2023-02-15T06:04:02;16.73;;;9.70;;
55372;SDS011;41249;47.838;16.490;2023-02-15T06:06:28;16.67;;;8.77;;
55372;SDS011;41249;47.838;16.490;2023-02-15T06:08:55;12.82;;;7.15;;
55372;SDS011;41249;47.838;16.490;2023-02-15T06:11:21;18.70;;;10.02;;
55372;SDS011;41249;47.838;16.490;2023-02-15T06:13:48;17.90;;;9.73;;
55372;SDS011;41249;47.838;16.490;2023-02-15T06:16:14;14.40;;;7.97;;
55372;SDS011;41249;47.838;16.490;2023-02-15T06:18:42;12.27;;;6.70;;
55372;SDS011;41249;47.838;16.490;2023-02-15T06:21:09;21.30;;;10.48;;
55372;SDS011;41249;47.838;16.490;2023-02-15T06:23:35;19.05;;;9.70;;
55372;SDS011;41249;47.838;16.490;2023-02-15T06:26:02;18.10;;;9.60;;
55372;SDS011;41249;47.838;16.490;2023-02-15T06:28:29;13.77;;;6.53;;
55372;SDS011;41249;47.838;16.490;2023-02-15T06:30:56;16.10;;;9.18;;
55372;SDS011;41249;47.838;16.490;2023-02-15T06:33:23;17.83;;;9.95;;
55372;SDS011;41249;47.838;16.490;2023-02-15T06:35:49;14.93;;;8.63;;
55372;SDS011;41249;47.838;16.490;2023-02-15T06:38:16;16.33;;;8.85;;
55372;SDS011;41249;47.838;16.490;2023-02-15T06:40:43;15.23;;;8.70;;
55372;SDS011;41249;47.838;16.490;2023-02-15T06:43:10;14.43;;;7.10;;
55372;SDS011;41249;47.838;16.490;2023-02-15T06:45:36;15.57;;;8.65;;
55372;SDS011;41249;47.838;16.490;2023-02-15T06:48:03;18.52;;;9.40;;
55372;SDS011;41249;47.838;16.490;2023-02-15T06:50:33;14.50;;;7.68;;
55372;SDS011;41249;47.838;16.490;2023-02-15T06:53:00;17.73;;;8.15;;
55372;SDS011;41249;47.838;16.490;2023-02-15T06:55:26;19.08;;;8.95;;
55372;SDS011;41249;47.838;16.490;2023-02-15T06:57:53;14.52;;;8.43;;
55372;SDS011;41249;47.838;16.490;2023-02-15T07:00:19;17.08;;;8.77;;
55372;SDS011;41249;47.838;16.490;2023-02-15T07:02:55;18.27;;;8.60;;
55372;SDS011;41249;47.838;16.490;2023-02-15T07:05:26;14.73;;;8.43;;
55372;SDS011;41249;47.838;16.490;2023-02-15T07:07:58;15.90;;;8.57;;
55372;SDS011;41249;47.838;16.490;2023-02-15T07:10:25;13.65;;;7.75;;
55372;SDS011;41249;47.838;16.490;2023-02-15T07:12:52;14.27;;;8.50;;
55372;SDS011;41249;47.838;16.490;2023-02-15T07:15:19;19.60;;;9.73;;
55372;SDS011;41249;47.838;16.490;2023-02-15T07:17:47;17.25;;;9.52;;
55372;SDS011;41249;47.838;16.490;2023-02-15T07:20:18;19.75;;;9.85;;
55372;SDS011;41249;47.838;16.490;2023-02-15T07:22:46;26.70;;;12.85;;
55372;SDS011;41249;47.838;16.490;2023-02-15T07:25:13;22.73;;;10.70;;
55372;SDS011;41249;47.838;16.490;2023-02-15T07:27:40;19.88;;;12.15;;
55372;SDS011;41249;47.838;16.490;2023-02-15T07:30:08;23.45;;;9.88;;
55372;SDS011;41249;47.838;16.490;2023-02-15T07:32:36;20.67;;;10.73;;
55372;SDS011;41249;47.838;16.490;2023-02-15T07:35:23;24.88;;;11.48;;
55372;SDS011;41249;47.838;16.490;2023-02-15T07:37:49;15.77;;;9.50;;
55372;SDS011;41249;47.838;16.490;2023-02-15T07:40:16;20.77;;;11.10;;
55372;SDS011;41249;47.838;16.490;2023-02-15T07:42:42;20.17;;;11.23;;
55372;SDS011;41249;47.838;16.490;2023-02-15T07:45:09;16.75;;;8.73;;
55372;SDS011;41249;47.838;16.490;2023-02-15T07:47:36;17.27;;;9.73;;
55372;SDS011;41249;47.838;16.490;2023-02-15T07:50:03;18.27;;;8.95;;
55372;SDS011;41249;47.838;16.490;2023-02-15T07:52:30;20.90;;;10.73;;
55372;SDS011;41249;47.838;16.490;2023-02-15T07:54:56;17.90;;;8.48;;
55372;SDS011;41249;47.838;16.490;2023-02-15T07:57:23;19.75;;;10.68;;
55372;SDS011;41249;47.838;16.490;2023-02-15T07:59:49;13.05;;;7.43;;
55372;SDS011;41249;47.838;16.490;2023-02-15T08:02:16;17.60;;;9.23;;
55372;SDS011;41249;47.838;16.490;2023-02-15T08:04:43;16.83;;;9.25;;
55372;SDS011;41249;47.838;16.490;2023-02-15T08:07:11;22.00;;;10.25;;
55372;SDS011;41249;47.838;16.490;2023-02-15T08:09:37;18.10;;;10.35;;
55372;SDS011;41249;47.838;16.490;2023-02-15T08:12:04;13.75;;;6.95;;
55372;SDS011;41249;47.838;16.490;2023-02-15T08:14:31;18.83;;;8.48;;
55372;SDS011;41249;47.838;16.490;2023-02-15T08:16:59;16.45;;;9.07;;
55372;SDS011;41249;47.838;16.490;2023-02-15T08:19:29;15.00;;;7.43;;
55372;SDS011;41249;47.838;16.490;2023-02-15T08:21:59;13.02;;;7.75;;
55372;SDS011;41249;47.838;16.490;2023-02-15T08:24:31;18.63;;;8.98;;
55372;SDS011;41249;47.838;16.490;2023-02-15T08:27:00;15.93;;;8.90;;
55372;SDS011;41249;47.838;16.490;2023-02-15T08:29:31;15.48;;;8.55;;
55372;SDS011;41249;47.838;16.490;2023-02-15T08:32:00;16.40;;;8.68;;
55372;SDS011;41249;47.838;16.490;2023-02-15T08:34:30;13.60;;;7.88;;
55372;SDS011;41249;47.838;16.490;2023-02-15T08:36:58;14.95;;;8.45;;
55372;SDS011;41249;47.838;16.490;2023-02-15T08:39:25;16.38;;;8.60;;
55372;SDS011;41249;47.838;16.490;2023-02-15T08:41:52;18.55;;;9.75;;
55372;SDS011;41249;47.838;16.490;2023-02-15T08:44:19;15.23;;;7.75;;
55372;SDS011;41249;47.838;16.490;2023-02-15T08:46:46;21.02;;;9.80;;
55372;SDS011;41249;47.838;16.490;2023-02-15T08:49:16;14.70;;;8.27;;
55372;SDS011;41249;47.838;16.490;2023-02-15T08:51:44;16.70;;;8.73;;
55372;SDS011;41249;47.838;16.490;2023-02-15T08:54:13;12.75;;;7.28;;
55372;SDS011;41249;47.838;16.490;2023-02-15T08:56:42;17.60;;;9.88;;
55372;SDS011;41249;47.838;16.490;2023-02-15T08:59:17;16.55;;;8.23;;
55372;SDS011;41249;47.838;16.490;2023-02-15T09:01:45;21.02;;;11.02;;
55372;SDS011;41249;47.838;16.490;2023-02-15T09:04:12;24.42;;;10.55;;
55372;SDS011;41249;47.838;16.490;2023-02-15T09:06:39;18.30;;;10.32;;
55372;SDS011;41249;47.838;16.490;2023-02-15T09:09:07;13.85;;;7.95;;
55372;SDS011;41249;47.838;16.490;2023-02-15T09:11:36;17.45;;;8.60;;
55372;SDS011;41249;47.838;16.490;2023-02-15T09:14:05;15.70;;;8.65;;
55372;SDS011;41249;47.838;16.490;2023-02-15T09:16:35;11.65;;;7.53;;
55372;SDS011;41249;47.838;16.490;2023-02-15T09:19:04;17.38;;;8.60;;
55372;SDS011;41249;47.838;16.490;2023-02-15T09:21:31;14.25;;;7.55;;
55372;SDS011;41249;47.838;16.490;2023-02-15T09:24:00;17.10;;;8.32;;
55372;SDS011;41249;47.838;16.490;2023-02-15T09:26:29;16.83;;;8.50;;
55372;SDS011;41249;47.838;16.490;2023-02-15T09:28:58;16.83;;;8.93;;
55372;SDS011;41249;47.838;16.490;2023-02-15T09:31:28;13.10;;;6.80;;
55372;SDS011;41249;47.838;16.490;2023-02-15T09:34:05;14.85;;;8.15;;
55372;SDS011;41249;47.838;16.490;2023-02-15T09:36:32;16.02;;;7.55;;
55372;SDS011;41249;47.838;16.490;2023-02-15T09:49:54;12.65;;;7.13;;
55372;SDS011;41249;47.838;16.490;2023-02-15T10:02:53;16.17;;;8.38;;
55372;SDS011;41249;47.838;16.490;2023-02-15T10:10:59;19.65;;;8.50;;
55372;SDS011;41249;47.838;16.490;2023-02-15T10:22:17;15.68;;;8.55;;
55372;SDS011;41249;47.838;16.490;2023-02-15T10:27:48;14.75;;;8.50;;
55372;SDS011;41249;47.838;16.490;2023-02-15T10:30:22;17.63;;;9.82;;
55372;SDS011;41249;47.838;16.490;2023-02-15T10:33:35;13.70;;;8.02;;
55372;SDS011;41249;47.838;16.490;2023-02-15T10:50:36;15.43;;;7.15;;
55372;SDS011;41249;47.838;16.490;2023-02-15T10:53:33;21.13;;;10.70;;
55372;SDS011;41249;47.838;16.490;2023-02-15T10:56:24;18.35;;;10.52;;
55372;SDS011;41249;47.838;16.490;2023-02-15T11:07:02;19.25;;;9.93;;
55372;SDS011;41249;47.838;16.490;2023-02-15T11:09:39;17.83;;;10.50;;
55372;SDS011;41249;47.838;16.490;2023-02-15T11:12:16;23.33;;;13.05;;
55372;SDS011;41249;47.838;16.490;2023-02-15T11:17:39;16.52;;;9.20;;
55372;SDS011;41249;47.838;16.490;2023-02-15T11:22:38;18.38;;;8.57;;
55372;SDS011;41249;47.838;16.490;2023-02-15T11:25:14;19.65;;;9.50;;
55372;SDS011;41249;47.838;16.490;2023-02-15T11:27:45;17.65;;;9.90;;
55372;SDS011;41249;47.838;16.490;2023-02-15T11:30:18;25.40;;;13.60;;
55372;SDS011;41249;47.838;16.490;2023-02-15T11:32:47;25.83;;;12.05;;
55372;SDS011;41249;47.838;16.490;2023-02-15T11:40:31;17.58;;;7.75;;
55372;SDS011;41249;47.838;16.490;2023-02-15T11:43:04;22.98;;;10.65;;
55372;SDS011;41249;47.838;16.490;2023-02-15T11:45:34;20.60;;;10.98;;
55372;SDS011;41249;47.838;16.490;2023-02-15T11:48:04;18.73;;;9.88;;
55372;SDS011;41249;47.838;16.490;2023-02-15T11:50:36;22.30;;;11.27;;
55372;SDS011;41249;47.838;16.490;2023-02-15T11:53:04;23.80;;;12.00;;
55372;SDS011;41249;47.838;16.490;2023-02-15T11:55:36;20.85;;;11.77;;
55372;SDS011;41249;47.838;16.490;2023-02-15T11:58:10;25.98;;;13.05;;
55372;SDS011;41249;47.838;16.490;2023-02-15T12:00:48;19.55;;;10.60;;
55372;SDS011;41249;47.838;16.490;2023-02-15T12:03:20;17.63;;;9.45;;
55372;SDS011;41249;47.838;16.490;2023-02-15T12:05:53;16.02;;;8.40;;
55372;SDS011;41249;47.838;16.490;2023-02-15T12:08:24;18.63;;;9.57;;
55372;SDS011;41249;47.838;16.490;2023-02-15T12:11:05;27.80;;;13.73;;
55372;SDS011;41249;47.838;16.490;2023-02-15T12:13:54;21.95;;;13.07;;
55372;SDS011;41249;47.838;16.490;2023-02-15T12:16:31;19.83;;;9.95;;
55372;SDS011;41249;47.838;16.490;2023-02-15T12:19:10;16.60;;;9.00;;
55372;SDS011;41249;47.838;16.490;2023-02-15T12:21:56;19.33;;;10.95;;
55372;SDS011;41249;47.838;16.490;2023-02-15T12:24:28;16.27;;;8.20;;
55372;SDS011;41249;47.838;16.490;2023-02-15T12:27:00;20.70;;;10.82;;
55372;SDS011;41249;47.838;16.490;2023-02-15T12:29:28;17.35;;;8.13;;
55372;SDS011;41249;47.838;16.490;2023-02-15T12:31:59;19.77;;;11.13;;
55372;SDS011;41249;47.838;16.490;2023-02-15T12:34:29;15.45;;;8.60;;
55372;SDS011;41249;47.838;16.490;2023-02-15T12:37:00;17.13;;;9.30;;
55372;SDS011;41249;47.838;16.490;2023-02-15T12:39:34;19.33;;;10.73;;
55372;SDS011;41249;47.838;16.490;2023-02-15T12:42:02;15.60;;;8.15;;
55372;SDS011;41249;47.838;16.490;2023-02-15T12:44:32;16.30;;;8.45;;
55372;SDS011;41249;47.838;16.490;2023-02-15T12:47:04;22.73;;;11.82;;
55372;SDS011;41249;47.838;16.490;2023-02-15T12:49:33;17.00;;;8.75;;
55372;SDS011;41249;47.838;16.490;2023-02-15T12:52:03;21.90;;;10.40;;
55372;SDS011;41249;47.838;16.490;2023-02-15T12:54:50;23.23;;;10.15;;
55372;SDS011;41249;47.838;16.490;2023-02-15T12:57:28;21.70;;;10.38;;
55372;SDS011;41249;47.838;16.490;2023-02-15T13:00:04;18.10;;;10.00;;
55372;SDS011;41249;47.838;16.490;2023-02-15T13:02:51;21.77;;;10.98;;
55372;SDS011;41249;47.838;16.490;2023-02-15T13:07:54;22.65;;;11.20;;
55372;SDS011;41249;47.838;16.490;2023-02-15T13:10:25;19.63;;;10.02;;
55372;SDS011;41249;47.838;16.490;2023-02-15T13:13:08;21.45;;;11.20;;
55372;SDS011;41249;47.838;16.490;2023-02-15T13:15:48;20.60;;;10.27;;
55372;SDS011;41249;47.838;16.490;2023-02-15T13:18:39;21.08;;;11.63;;
55372;SDS011;41249;47.838;16.490;2023-02-15T13:21:12;16.38;;;9.40;;
55372;SDS011;41249;47.838;16.490;2023-02-15T13:23:46;16.20;;;9.25;;
55372;SDS011;41249;47.838;16.490;2023-02-15T13:26:16;16.17;;;8.45;;
55372;SDS011;41249;47.838;16.490;2023-02-15T13:28:47;16.77;;;8.10;;
55372;SDS011;41249;47.838;16.490;2023-02-15T13:31:18;16.27;;;10.00;;
55372;SDS011;41249;47.838;16.490;2023-02-15T13:33:56;20.05;;;11.00;;
55372;SDS011;41249;47.838;16.490;2023-02-15T13:36:34;17.42;;;10.15;;
55372;SDS011;41249;47.838;16.490;2023-02-15T13:42:32;25.98;;;14.15;;
55372;SDS011;41249;47.838;16.490;2023-02-15T13:50:54;22.38;;;11.30;;
55372;SDS011;41249;47.838;16.490;2023-02-15T13:59:01;24.65;;;12.40;;
55372;SDS011;41249;47.838;16.490;2023-02-15T14:01:45;23.88;;;12.00;;
55372;SDS011;41249;47.838;16.490;2023-02-15T14:09:57;22.00;;;10.02;;
55372;SDS011;41249;47.838;16.490;2023-02-15T14:18:39;17.83;;;9.80;;
55372;SDS011;41249;47.838;16.490;2023-02-15T14:26:03;23.95;;;12.27;;
55372;SDS011;41249;47.838;16.490;2023-02-15T14:31:23;19.02;;;9.63;;
55372;SDS011;41249;47.838;16.490;2023-02-15T14:33:57;24.80;;;11.70;;
55372;SDS011;41249;47.838;16.490;2023-02-15T14:36:24;17.10;;;9.30;;
55372;SDS011;41249;47.838;16.490;2023-02-15T14:38:56;14.75;;;7.53;;
55372;SDS011;41249;47.838;16.490;2023-02-15T14:42:14;21.45;;;11.45;;
55372;SDS011;41249;47.838;16.490;2023-02-15T14:47:48;24.65;;;13.00;;
55372;SDS011;41249;47.838;16.490;2023-02-15T14:53:16;26.90;;;12.00;;
55372;SDS011;41249;47.838;16.490;2023-02-15T14:56:31;25.45;;;12.82;;
55372;SDS011;41249;47.838;16.490;2023-02-15T15:01:25;31.48;;;15.00;;
55372;SDS011;41249;47.838;16.490;2023-02-15T15:03:58;29.13;;;14.15;;
55372;SDS011;41249;47.838;16.490;2023-02-15T15:06:31;23.67;;;11.80;;
55372;SDS011;41249;47.838;16.490;2023-02-15T15:11:51;22.02;;;11.80;;
55372;SDS011;41249;47.838;16.490;2023-02-15T15:16:59;22.05;;;11.55;;
55372;SDS011;41249;47.838;16.490;2023-02-15T15:32:48;21.10;;;11.05;;
55372;SDS011;41249;47.838;16.490;2023-02-15T15:48:46;22.40;;;11.77;;
55372;SDS011;41249;47.838;16.490;2023-02-15T15:51:15;24.02;;;12.48;;
55372;SDS011;41249;47.838;16.490;2023-02-15T15:53:47;25.95;;;13.10;;
55372;SDS011;41249;47.838;16.490;2023-02-15T15:56:18;25.88;;;12.07;;
55372;SDS011;41249;47.838;16.490;2023-02-15T15:58:49;32.88;;;15.25;;
55372;SDS011;41249;47.838;16.490;2023-02-15T16:01:24;22.67;;;13.18;;
55372;SDS011;41249;47.838;16.490;2023-02-15T16:03:52;21.08;;;11.15;;
55372;SDS011;41249;47.838;16.490;2023-02-15T16:06:42;26.75;;;13.35;;
55372;SDS011;41249;47.838;16.490;2023-02-15T16:09:11;24.55;;;12.15;;
55372;SDS011;41249;47.838;16.490;2023-02-15T16:11:57;25.80;;;12.00;;
55372;SDS011;41249;47.838;16.490;2023-02-15T16:14:32;29.95;;;16.45;;
55372;SDS011;41249;47.838;16.490;2023-02-15T16:17:03;25.88;;;12.52;;
55372;SDS011;41249;47.838;16.490;2023-02-15T16:19:41;38.63;;;17.02;;
55372;SDS011;41249;47.838;16.490;2023-02-15T16:22:10;21.73;;;11.27;;
55372;SDS011;41249;47.838;16.490;2023-02-15T16:27:30;25.75;;;13.55;;
55372;SDS011;41249;47.838;16.490;2023-02-15T16:33:33;30.92;;;14.85;;
55372;SDS011;41249;47.838;16.490;2023-02-15T16:35:53;26.63;;;13.15;;
55372;SDS011;41249;47.838;16.490;2023-02-15T16:41:09;28.10;;;14.35;;
55372;SDS011;41249;47.838;16.490;2023-02-15T16:43:39;23.15;;;11.98;;
55372;SDS011;41249;47.838;16.490;2023-02-15T16:46:11;31.35;;;15.05;;
55372;SDS011;41249;47.838;16.490;2023-02-15T16:49:02;31.95;;;15.93;;
55372;SDS011;41249;47.838;16.490;2023-02-15T16:51:33;22.23;;;11.57;;
55372;SDS011;41249;47.838;16.490;2023-02-15T16:54:08;38.15;;;14.40;;
55372;SDS011;41249;47.838;16.490;2023-02-15T16:56:42;31.45;;;14.55;;
55372;SDS011;41249;47.838;16.490;2023-02-15T16:59:16;29.20;;;14.43;;
55372;SDS011;41249;47.838;16.490;2023-02-15T17:01:47;29.95;;;14.27;;
55372;SDS011;41249;47.838;16.490;2023-02-15T17:04:32;26.92;;;13.45;;
55372;SDS011;41249;47.838;16.490;2023-02-15T17:07:03;14.27;;;7.88;;
55372;SDS011;41249;47.838;16.490;2023-02-15T17:09:51;20.83;;;8.60;;
55372;SDS011;41249;47.838;16.490;2023-02-15T17:17:50;28.75;;;14.48;;
55372;SDS011;41249;47.838;16.490;2023-02-15T17:20:17;21.63;;;11.60;;
55372;SDS011;41249;47.838;16.490;2023-02-15T17:22:47;34.85;;;14.73;;
55372;SDS011;41249;47.838;16.490;2023-02-15T17:25:20;29.35;;;14.75;;
55372;SDS011;41249;47.838;16.490;2023-02-15T17:27:53;29.83;;;12.50;;
55372;SDS011;41249;47.838;16.490;2023-02-15T17:30:26;31.15;;;13.68;;
55372;SDS011;41249;47.838;16.490;2023-02-15T17:33:02;27.67;;;13.77;;
55372;SDS011;41249;47.838;16.490;2023-02-15T17:35:31;24.23;;;12.60;;
55372;SDS011;41249;47.838;16.490;2023-02-15T17:38:02;27.75;;;14.18;;
55372;SDS011;41249;47.838;16.490;2023-02-15T17:40:41;20.40;;;10.15;;
55372;SDS011;41249;47.838;16.490;2023-02-15T17:43:08;34.83;;;15.75;;
55372;SDS011;41249;47.838;16.490;2023-02-15T17:45:40;23.67;;;12.88;;
55372;SDS011;41249;47.838;16.490;2023-02-15T17:48:30;25.67;;;13.38;;
55372;SDS011;41249;47.838;16.490;2023-02-15T17:51:03;27.42;;;13.82;;
55372;SDS011;41249;47.838;16.490;2023-02-15T17:53:32;27.92;;;13.20;;
55372;SDS011;41249;47.838;16.490;2023-02-15T17:56:00;23.48;;;11.73;;